createdAt,value
2017-04-11T00:00:05.514Z,54.06
2017-04-11T00:01:15.465Z,54.06
2017-04-11T00:02:24.762Z,53.96
2017-04-11T00:03:34.704Z,53.87
2017-04-11T00:04:43.971Z,53.77
2017-04-11T00:05:54.156Z,54.25
2017-04-11T00:07:03.791Z,54.06
2017-04-11T00:08:13.703Z,54.15
2017-04-11T00:09:23.437Z,54.06
2017-04-11T00:10:33.499Z,54.15
2017-04-11T00:11:43.730Z,54.06
2017-04-11T00:12:53.345Z,54.72
2017-04-11T00:14:03.410Z,54.53
2017-04-11T00:15:13.417Z,54.6
2017-04-11T00:16:23.352Z,54.72
2017-04-11T00:17:33.240Z,54.69
2017-04-11T00:18:43.139Z,54.82
2017-04-11T00:19:53.045Z,54.82
2017-04-11T00:21:02.954Z,54.6
2017-04-11T00:22:12.602Z,54.91
2017-04-11T00:23:22.869Z,54.91
2017-04-11T00:24:32.791Z,54.79
2017-04-11T00:25:42.451Z,54.89
2017-04-11T00:26:52.135Z,55.39
2017-04-11T00:28:01.771Z,55.65
2017-04-11T00:29:11.980Z,55.65
2017-04-11T00:30:21.566Z,55.93
2017-04-11T00:31:31.588Z,55.93
2017-04-11T00:32:41.168Z,56.03
2017-04-11T00:33:51.170Z,56.41
2017-04-11T00:35:01.383Z,56.6
2017-04-11T00:36:11.408Z,56.7
2017-04-11T00:37:21.312Z,56.98
2017-04-11T00:38:31.363Z,56.79
2017-04-11T00:39:40.943Z,57.55
2017-04-11T00:40:50.908Z,57.93
2017-04-11T00:42:00.490Z,58.12
2017-04-11T00:43:10.087Z,57.45
2017-04-11T00:44:19.994Z,57.84
2017-04-11T00:45:29.587Z,57.74
2017-04-11T00:46:39.781Z,57.93
2017-04-11T00:47:49.482Z,58.4
2017-04-11T00:48:59.063Z,58.22
2017-04-11T00:50:08.652Z,58.88
2017-04-11T00:51:18.285Z,58.88
2017-04-11T00:52:28.507Z,58.79
2017-04-11T00:53:38.128Z,59.27
2017-04-11T00:54:48.344Z,59.17
2017-04-11T00:55:58.297Z,59.64
2017-04-11T00:57:08.270Z,59.74
2017-04-11T00:58:18.121Z,60.12
2017-04-11T00:59:27.693Z,59.83
2017-04-11T01:00:37.655Z,60.02
2017-04-11T01:01:46.917Z,59.74
2017-04-11T01:02:56.496Z,59.9
2017-04-11T01:04:06.410Z,59.9
2017-04-11T01:05:15.995Z,60.09
2017-04-11T01:06:25.952Z,59.9
2017-04-11T01:07:35.885Z,59.83
2017-04-11T01:08:45.497Z,59.9
2017-04-11T01:09:55.686Z,59.8
2017-04-11T01:11:05.692Z,60.18
2017-04-11T01:12:15.286Z,60.18
2017-04-11T01:13:25.193Z,60.18
2017-04-11T01:14:34.500Z,60.09
2017-04-11T01:15:44.647Z,60.09
2017-04-11T01:16:54.259Z,60.28
2017-04-11T01:18:04.347Z,59.8
2017-04-11T01:19:14.240Z,59.9
2017-04-11T01:20:24.141Z,59.99
2017-04-11T01:21:34.012Z,60.09
2017-04-11T01:22:43.693Z,60.09
2017-04-11T01:23:53.756Z,60.66
2017-04-11T01:25:03.675Z,60.47
2017-04-11T01:26:13.571Z,60.66
2017-04-11T01:27:23.529Z,60.38
2017-04-11T01:28:33.438Z,60.38
2017-04-11T01:29:43.338Z,60.57
2017-04-11T01:30:52.608Z,60.47
2017-04-11T01:32:02.509Z,60.57
2017-04-11T01:33:12.402Z,60.75
2017-04-11T01:34:22.315Z,60.94
2017-04-11T01:35:32.010Z,60.94
2017-04-11T01:36:41.900Z,60.94
2017-04-11T01:37:51.796Z,60.66
2017-04-11T01:39:01.740Z,61.32
2017-04-11T01:40:11.075Z,61.32
2017-04-11T01:41:20.968Z,61.13
2017-04-11T01:42:30.573Z,61.32
2017-04-11T01:43:40.537Z,61.42
2017-04-11T01:44:50.422Z,61.9
2017-04-11T01:45:59.758Z,61.99
2017-04-11T01:47:09.660Z,61.9
2017-04-11T01:48:19.270Z,61.8
2017-04-11T01:49:29.201Z,62.08
2017-04-11T01:50:39.438Z,61.71
2017-04-11T01:51:49.358Z,61.99
2017-04-11T01:52:59.409Z,61.9
2017-04-11T01:54:09.361Z,61.99
2017-04-11T01:55:19.253Z,61.99
2017-04-11T01:56:29.181Z,62.08
2017-04-11T01:57:38.434Z,62.08
2017-04-11T01:58:48.014Z,61.99
2017-04-11T01:59:57.956Z,62.08
2017-04-11T02:01:07.857Z,61.9
2017-04-11T02:02:18.155Z,61.9
2017-04-11T02:03:27.852Z,61.9
2017-04-11T02:04:37.752Z,61.9
2017-04-11T02:05:47.726Z,61.99
2017-04-11T02:06:57.675Z,61.9
2017-04-11T02:08:07.930Z,62.27
2017-04-11T02:09:17.524Z,61.9
2017-04-11T02:10:27.516Z,62.46
2017-04-11T02:11:37.109Z,62.08
2017-04-11T02:12:47.021Z,62.46
2017-04-11T02:13:56.854Z,62.27
2017-04-11T02:15:06.462Z,62.37
2017-04-11T02:16:16.043Z,62.46
2017-04-11T02:17:26.043Z,62.27
2017-04-11T02:18:35.946Z,62.46
2017-04-11T02:19:45.521Z,62.18
2017-04-11T02:20:55.102Z,62.85
2017-04-11T02:22:05.041Z,62.18
2017-04-11T02:23:15.017Z,62.56
2017-04-11T02:24:24.928Z,62.75
2017-04-11T02:25:34.842Z,62.65
2017-04-11T02:26:44.770Z,63.04
2017-04-11T02:27:54.344Z,62.75
2017-04-11T02:29:04.248Z,62.94
2017-04-11T02:30:13.836Z,62.75
2017-04-11T02:31:24.162Z,62.85
2017-04-11T02:32:33.105Z,63.04
2017-04-11T02:33:43.007Z,62.56
2017-04-11T02:34:52.658Z,62.85
2017-04-11T02:36:02.575Z,62.85
2017-04-11T02:37:12.791Z,62.65
2017-04-11T02:38:22.408Z,63.51
2017-04-11T02:39:32.020Z,63.42
2017-04-11T02:40:41.996Z,63.6
2017-04-11T02:41:51.616Z,63.7
2017-04-11T02:43:01.528Z,63.79
2017-04-11T02:44:11.533Z,64.46
2017-04-11T02:45:21.519Z,64.18
2017-04-11T02:46:31.125Z,63.99
2017-04-11T02:47:40.738Z,64.27
2017-04-11T02:48:50.934Z,64.65
2017-04-11T02:50:00.948Z,64.56
2017-04-11T02:51:10.522Z,65.03
2017-04-11T02:52:20.519Z,64.75
2017-04-11T02:53:29.777Z,64.94
2017-04-11T02:54:39.970Z,65.22
2017-04-11T02:55:49.542Z,65.6
2017-04-11T02:56:59.123Z,65.6
2017-04-11T02:58:08.807Z,65.67
2017-04-11T02:59:18.760Z,65.99
2017-04-11T03:00:28.896Z,65.38
2017-04-11T03:01:38.151Z,65.57
2017-04-11T03:02:47.733Z,65.67
2017-04-11T03:03:57.628Z,65.86
2017-04-11T03:05:07.246Z,65.47
2017-04-11T03:06:17.718Z,65.76
2017-04-11T03:07:27.615Z,66.05
2017-04-11T03:08:37.580Z,65.57
2017-04-11T03:09:47.574Z,65.95
2017-04-11T03:10:57.525Z,66.33
2017-04-11T03:12:07.447Z,66.14
2017-04-11T03:13:17.423Z,66.05
2017-04-11T03:14:27.012Z,65.86
2017-04-11T03:15:36.586Z,66.05
2017-04-11T03:16:46.266Z,66.52
2017-04-11T03:17:56.493Z,66.42
2017-04-11T03:19:06.424Z,66.33
2017-04-11T03:20:16.355Z,66.24
2017-04-11T03:21:26.285Z,66.52
2017-04-11T03:22:36.193Z,66.52
2017-04-11T03:23:46.396Z,66.61
2017-04-11T03:24:56.357Z,66.52
2017-04-11T03:26:06.293Z,66.52
2017-04-11T03:27:16.180Z,66.42
2017-04-11T03:28:26.105Z,66.61
2017-04-11T03:29:36.319Z,66.61
2017-04-11T03:30:45.937Z,66.24
2017-04-11T03:31:55.842Z,66.61
2017-04-11T03:33:05.422Z,66.33
2017-04-11T03:34:15.396Z,66.24
2017-04-11T03:35:25.662Z,66.42
2017-04-11T03:36:35.281Z,66.61
2017-04-11T03:37:44.858Z,66.52
2017-04-11T03:38:54.452Z,66.33
2017-04-11T03:40:04.044Z,66.42
2017-04-11T03:41:14.009Z,66.33
2017-04-11T03:42:23.590Z,66.42
2017-04-11T03:43:33.561Z,66.71
2017-04-11T03:44:43.175Z,67.28
2017-04-11T03:45:53.157Z,66.9
2017-04-11T03:47:03.393Z,66.9
2017-04-11T03:48:13.288Z,66.8
2017-04-11T03:49:23.189Z,66.9
2017-04-11T03:50:33.097Z,66.8
2017-04-11T03:51:42.676Z,67.28
2017-04-11T03:52:52.311Z,67.38
2017-04-11T03:54:01.568Z,67.38
2017-04-11T03:55:11.510Z,67.66
2017-04-11T03:56:21.396Z,67.76
2017-04-11T03:57:31.281Z,67.47
2017-04-11T03:58:41.229Z,67.66
2017-04-11T03:59:50.840Z,67.57
2017-04-11T04:01:00.876Z,67.57
2017-04-11T04:02:10.805Z,68.13
2017-04-11T04:03:20.735Z,67.66
2017-04-11T04:04:30.300Z,67.91
2017-04-11T04:05:40.204Z,67.82
2017-04-11T04:06:50.193Z,67.47
2017-04-11T04:08:00.130Z,67.82
2017-04-11T04:09:10.085Z,67.82
2017-04-11T04:10:20.382Z,67.72
2017-04-11T04:11:30.404Z,67.91
2017-04-11T04:12:40.296Z,67.63
2017-04-11T04:13:49.925Z,68.29
2017-04-11T04:14:59.516Z,68.1
2017-04-11T04:16:09.811Z,67.91
2017-04-11T04:17:19.424Z,68.01
2017-04-11T04:18:28.730Z,67.91
2017-04-11T04:19:38.378Z,67.63
2017-04-11T04:20:48.053Z,68.1
2017-04-11T04:21:58.275Z,68.29
2017-04-11T04:23:08.145Z,68.01
2017-04-11T04:24:18.040Z,68.19
2017-04-11T04:25:27.626Z,68.29
2017-04-11T04:26:37.516Z,68.01
2017-04-11T04:27:47.706Z,68.19
2017-04-11T04:28:57.024Z,67.72
2017-04-11T04:30:06.937Z,68.39
2017-04-11T04:31:16.892Z,68.58
2017-04-11T04:32:26.792Z,68.77
2017-04-11T04:33:36.992Z,68.86
2017-04-11T04:34:46.266Z,68.58
2017-04-11T04:35:56.166Z,68.48
2017-04-11T04:37:06.065Z,68.96
2017-04-11T04:38:15.998Z,69.05
2017-04-11T04:39:25.572Z,68.86
2017-04-11T04:40:35.154Z,69.05
2017-04-11T04:41:45.072Z,68.96
2017-04-11T04:42:54.354Z,68.77
2017-04-11T04:44:03.612Z,69.24
2017-04-11T04:45:13.841Z,69.15
2017-04-11T04:46:23.092Z,69.15
2017-04-11T04:47:32.372Z,68.96
2017-04-11T04:48:41.980Z,69.05
2017-04-11T04:49:51.883Z,69.24
2017-04-11T04:51:01.811Z,68.96
2017-04-11T04:52:11.722Z,68.96
2017-04-11T04:53:21.624Z,68.96
2017-04-11T04:54:31.551Z,69.05
2017-04-11T04:55:41.474Z,68.96
2017-04-11T04:56:51.614Z,69.43
2017-04-11T04:58:01.349Z,69.24
2017-04-11T04:59:10.940Z,69.34
2017-04-11T05:00:20.825Z,69.34
2017-04-11T05:01:30.095Z,69.53
2017-04-11T05:02:40.323Z,69.62
2017-04-11T05:03:50.231Z,69.91
2017-04-11T05:05:00.206Z,69.91
2017-04-11T05:06:09.782Z,69.62
2017-04-11T05:07:19.814Z,69.71
2017-04-11T05:08:30.016Z,69.85
2017-04-11T05:09:39.958Z,69.75
2017-04-11T05:10:49.565Z,69.66
2017-04-11T05:11:58.935Z,69.56
2017-04-11T05:13:08.524Z,69.94
2017-04-11T05:14:18.766Z,69.66
2017-04-11T05:15:28.712Z,69.37
2017-04-11T05:16:38.697Z,69.62
2017-04-11T05:17:48.500Z,69.66
2017-04-11T05:18:58.509Z,69.85
2017-04-11T05:20:08.662Z,69.75
2017-04-11T05:21:18.568Z,69.66
2017-04-11T05:22:28.213Z,69.37
2017-04-11T05:23:37.798Z,69.94
2017-04-11T05:24:47.705Z,69.09
2017-04-11T05:25:58.189Z,69.37
2017-04-11T05:27:08.163Z,69.66
2017-04-11T05:28:17.738Z,69.37
2017-04-11T05:29:27.353Z,69.37
2017-04-11T05:30:37.267Z,69.18
2017-04-11T05:31:47.471Z,68.9
2017-04-11T05:32:57.436Z,69.09
2017-04-11T05:34:07.052Z,68.9
2017-04-11T05:35:16.984Z,68.9
2017-04-11T05:36:26.590Z,68.8
2017-04-11T05:37:36.871Z,68.42
2017-04-11T05:38:46.281Z,68.23
2017-04-11T05:39:56.207Z,68.36
2017-04-11T05:41:05.802Z,67.88
2017-04-11T05:42:15.696Z,68.07
2017-04-11T05:43:25.619Z,67.88
2017-04-11T05:44:35.656Z,67.98
2017-04-11T05:45:45.228Z,67.88
2017-04-11T05:46:54.823Z,67.88
2017-04-11T05:48:04.723Z,67.69
2017-04-11T05:49:14.751Z,67.6
2017-04-11T05:50:24.330Z,67.6
2017-04-11T05:51:34.369Z,67.69
2017-04-11T05:52:43.995Z,67.41
2017-04-11T05:53:53.606Z,67.32
2017-04-11T05:55:03.563Z,67.22
2017-04-11T05:56:13.632Z,66.94
2017-04-11T05:57:22.888Z,66.74
2017-04-11T05:58:32.522Z,67.03
2017-04-11T05:59:42.134Z,67.03
2017-04-11T06:00:51.742Z,66.36
2017-04-11T06:02:01.318Z,66.46
2017-04-11T06:03:10.893Z,66.46
2017-04-11T06:04:20.168Z,66.46
2017-04-11T06:05:30.078Z,66.36
2017-04-11T06:06:40.407Z,66.27
2017-04-11T06:07:49.707Z,66.36
2017-04-11T06:08:59.312Z,66.36
2017-04-11T06:10:09.216Z,66.55
2017-04-11T06:11:19.122Z,66.46
2017-04-11T06:12:29.015Z,66.65
2017-04-11T06:13:38.313Z,66.36
2017-04-11T06:14:48.217Z,66.65
2017-04-11T06:15:57.849Z,66.36
2017-04-11T06:17:07.515Z,66.46
2017-04-11T06:18:17.384Z,66.27
2017-04-11T06:19:26.639Z,66.36
2017-04-11T06:20:36.288Z,66.27
2017-04-11T06:21:46.267Z,66.46
2017-04-11T06:22:55.856Z,66.08
2017-04-11T06:24:06.104Z,65.89
2017-04-11T06:25:16.008Z,65.73
2017-04-11T06:26:25.916Z,65.41
2017-04-11T06:27:35.585Z,65.92
2017-04-11T06:28:45.572Z,65.64
2017-04-11T06:29:55.762Z,65.54
2017-04-11T06:31:05.062Z,65.45
2017-04-11T06:32:15.025Z,65.35
2017-04-11T06:33:24.975Z,65.54
2017-04-11T06:34:34.559Z,65.54
2017-04-11T06:35:44.423Z,65.73
2017-04-11T06:36:53.762Z,65.16
2017-04-11T06:38:03.753Z,65.25
2017-04-11T06:39:13.659Z,64.69
2017-04-11T06:40:23.573Z,64.59
2017-04-11T06:41:33.549Z,64.87
2017-04-11T06:42:43.447Z,64.59
2017-04-11T06:43:53.072Z,63.73
2017-04-11T06:45:03.043Z,63.92
2017-04-11T06:46:12.461Z,63.01
2017-04-11T06:47:22.662Z,62.91
2017-04-11T06:48:32.248Z,62.91
2017-04-11T06:49:42.180Z,62.81
2017-04-11T06:50:52.367Z,62.34
2017-04-11T06:52:02.452Z,62.34
2017-04-11T06:53:12.718Z,61.77
2017-04-11T06:54:22.321Z,61.48
2017-04-11T06:55:32.339Z,61.58
2017-04-11T06:56:42.244Z,60.72
2017-04-11T06:57:51.968Z,60.91
2017-04-11T06:59:02.163Z,60.82
2017-04-11T07:00:11.748Z,61.19
2017-04-11T07:01:21.761Z,60.63
2017-04-11T07:02:31.720Z,60.24
2017-04-11T07:03:41.622Z,59.86
2017-04-11T07:04:51.504Z,59.96
2017-04-11T07:06:01.086Z,59.96
2017-04-11T07:07:10.373Z,59.7
2017-04-11T07:08:19.995Z,59.32
2017-04-11T07:09:29.255Z,59.42
2017-04-11T07:10:39.208Z,59.23
2017-04-11T07:11:48.833Z,58.56
2017-04-11T07:12:58.505Z,57.8
2017-04-11T07:14:08.443Z,57.51
2017-04-11T07:15:18.378Z,58.28
2017-04-11T07:16:28.582Z,57.6
2017-04-11T07:17:38.547Z,57.89
2017-04-11T07:18:48.149Z,57.8
2017-04-11T07:19:58.049Z,57.7
2017-04-11T07:21:07.637Z,57.32
2017-04-11T07:22:17.207Z,57.51
2017-04-11T07:23:27.182Z,57.32
2017-04-11T07:24:36.832Z,57.13
2017-04-11T07:25:46.427Z,57.04
2017-04-11T07:26:56.482Z,57.51
2017-04-11T07:28:06.380Z,57.42
2017-04-11T07:29:16.368Z,57.51
2017-04-11T07:30:26.278Z,57.51
2017-04-11T07:31:36.179Z,57.99
2017-04-11T07:32:46.113Z,57.7
2017-04-11T07:33:56.041Z,57.89
2017-04-11T07:35:05.975Z,57.89
2017-04-11T07:36:15.913Z,58.18
2017-04-11T07:37:25.829Z,58.56
2017-04-11T07:38:35.443Z,58.94
2017-04-11T07:39:45.693Z,59.01
2017-04-11T07:40:55.728Z,59.7
2017-04-11T07:42:05.317Z,59.03
2017-04-11T07:43:15.251Z,59.13
2017-04-11T07:44:25.170Z,59.42
2017-04-11T07:45:35.395Z,59.58
2017-04-11T07:46:45.118Z,59.67
2017-04-11T07:47:54.706Z,59.61
2017-04-11T07:49:04.631Z,59.51
2017-04-11T07:50:14.223Z,59.23
2017-04-11T07:51:24.538Z,59.13
2017-04-11T07:52:33.482Z,59.03
2017-04-11T07:53:43.275Z,56.94
2017-04-11T07:54:52.868Z,56.37
2017-04-11T07:56:02.861Z,55.7
2017-04-11T07:57:13.648Z,55.13
2017-04-11T07:58:24.287Z,55.07
2017-04-11T07:59:33.922Z,54.68
2017-04-11T08:00:43.563Z,54.56
2017-04-11T08:01:53.581Z,55.04
2017-04-11T08:03:03.938Z,54.85
2017-04-11T08:04:13.556Z,54.56
2017-04-11T08:05:22.810Z,54.94
2017-04-11T08:06:32.906Z,54.94
2017-04-11T08:07:43.077Z,54.37
2017-04-11T08:08:53.959Z,53.04
2017-04-11T08:10:04.567Z,53.09
2017-04-11T08:11:15.704Z,53
2017-04-11T08:12:25.608Z,52.8
2017-04-11T08:13:35.785Z,51.56
2017-04-11T08:14:46.665Z,49.68
2017-04-11T08:15:56.903Z,49.33
2017-04-11T08:17:07.453Z,50.18
2017-04-11T08:18:17.466Z,50.63
2017-04-11T08:19:27.439Z,50.26
2017-04-11T08:20:37.358Z,50.92
2017-04-11T08:21:47.267Z,50.54
2017-04-11T08:22:57.213Z,50.73
2017-04-11T08:24:07.754Z,49.66
2017-04-11T08:25:17.711Z,49.9
2017-04-11T08:26:28.505Z,49.11
2017-04-11T08:27:38.999Z,48.73
2017-04-11T08:28:49.489Z,47.99
2017-04-11T08:30:00.414Z,48.75
2017-04-11T08:31:11.323Z,48.08
2017-04-11T08:32:22.417Z,46.3
2017-04-11T08:33:32.949Z,43.17
2017-04-11T08:34:43.131Z,42.16
2017-04-11T08:35:53.299Z,39.14
2017-04-11T08:37:03.546Z,38.1
2017-04-11T08:38:14.354Z,37.82
2017-04-11T08:39:25.015Z,38.95
2017-04-11T08:40:35.880Z,39.73
2017-04-11T08:41:46.413Z,39.62
2017-04-11T08:42:56.327Z,40.08
2017-04-11T08:44:07.181Z,39.86
2017-04-11T08:45:17.340Z,39.12
2017-04-11T08:46:28.867Z,39.12
2017-04-11T08:47:39.356Z,39.33
2017-04-11T08:48:49.599Z,36.46
2017-04-11T08:50:00.540Z,36.49
2017-04-11T08:51:11.044Z,35.25
2017-04-11T08:52:21.703Z,36.11
2017-04-11T08:53:31.953Z,37.26
2017-04-11T08:54:42.192Z,38.1
2017-04-11T08:55:52.668Z,38.09
2017-04-11T08:57:02.973Z,39.04
2017-04-11T08:58:13.559Z,40.34
2017-04-11T08:59:24.043Z,40.72
2017-04-11T09:00:34.287Z,39.1
2017-04-11T09:01:44.855Z,39.03
2017-04-11T09:02:55.484Z,39.4
2017-04-11T09:04:06.069Z,40.06
2017-04-11T09:05:16.301Z,40.53
2017-04-11T09:06:26.975Z,40.72
2017-04-11T09:07:37.880Z,41.95
2017-04-11T09:08:48.423Z,42.6
2017-04-11T09:09:58.639Z,43.07
2017-04-11T09:11:09.180Z,43.65
2017-04-11T09:12:19.031Z,43.46
2017-04-11T09:13:29.438Z,43.82
2017-04-11T09:14:39.743Z,44.29
2017-04-11T09:15:51.229Z,44.01
2017-04-11T09:17:01.768Z,44.38
2017-04-11T09:18:12.920Z,44.48
2017-04-11T09:19:24.752Z,44.48
2017-04-11T09:20:34.952Z,44.29
2017-04-11T09:21:44.581Z,44.46
2017-04-11T09:22:54.176Z,45.22
2017-04-11T09:24:04.697Z,45.22
2017-04-11T09:25:15.150Z,44.27
2017-04-11T09:26:25.685Z,44.1
2017-04-11T09:27:35.865Z,43.72
2017-04-11T09:28:46.098Z,42.81
2017-04-11T09:29:56.343Z,40.72
2017-04-11T09:31:06.509Z,40.17
2017-04-11T09:32:16.694Z,39.5
2017-04-11T09:33:27.030Z,39.14
2017-04-11T09:34:37.595Z,39.23
2017-04-11T09:35:48.109Z,39.79
2017-04-11T09:36:58.589Z,40.26
2017-04-11T09:38:09.225Z,40.06
2017-04-11T09:39:19.113Z,40.63
2017-04-11T09:40:29.707Z,40.32
2017-04-11T09:41:40.194Z,38.34
2017-04-11T09:42:50.952Z,36.65
2017-04-11T09:44:01.525Z,34.66
2017-04-11T09:45:12.200Z,33.16
2017-04-11T09:46:22.413Z,32.03
2017-04-11T09:47:32.802Z,31.18
2017-04-11T09:48:43.728Z,29.85
2017-04-11T09:49:54.242Z,28.15
2017-04-11T09:51:04.912Z,26.62
2017-04-11T09:52:15.117Z,26.54
2017-04-11T09:53:25.634Z,28.66
2017-04-11T09:54:35.962Z,28.16
2017-04-11T09:55:46.511Z,28.74
2017-04-11T09:56:56.792Z,29.02
2017-04-11T09:58:07.296Z,29.66
2017-04-11T09:59:18.141Z,30.6
2017-04-11T10:00:29.007Z,31.64
2017-04-11T10:01:39.350Z,33.62
2017-04-11T10:02:50.879Z,34.94
2017-04-11T10:04:01.086Z,35.98
2017-04-11T10:05:11.302Z,35.68
2017-04-11T10:06:21.870Z,35.88
2017-04-11T10:07:32.398Z,35.69
2017-04-11T10:08:42.605Z,34.75
2017-04-11T10:09:52.107Z,34.96
2017-04-11T10:11:02.348Z,34.29
2017-04-11T10:12:12.833Z,33.25
2017-04-11T10:13:23.335Z,32.03
2017-04-11T10:14:33.933Z,32.03
2017-04-11T10:15:44.161Z,30.87
2017-04-11T10:16:54.736Z,30.79
2017-04-11T10:18:05.224Z,31.74
2017-04-11T10:19:15.498Z,32.01
2017-04-11T10:20:26.041Z,32.59
2017-04-11T10:21:36.215Z,32.95
2017-04-11T10:22:46.846Z,34.1
2017-04-11T10:23:57.720Z,34.66
2017-04-11T10:25:07.600Z,34.75
2017-04-11T10:26:17.834Z,35.12
2017-04-11T10:27:28.089Z,35.22
2017-04-11T10:28:38.353Z,35.49
2017-04-11T10:29:50.117Z,36.06
2017-04-11T10:31:00.612Z,36.54
2017-04-11T10:32:11.197Z,37.21
2017-04-11T10:33:21.776Z,37.28
2017-04-11T10:34:32.332Z,38.14
2017-04-11T10:35:43.173Z,37.76
2017-04-11T10:36:53.488Z,37.55
2017-04-11T10:38:03.671Z,38.32
2017-04-11T10:39:13.878Z,38.89
2017-04-11T10:40:24.378Z,39.35
2017-04-11T10:41:35.300Z,40.4
2017-04-11T10:42:45.580Z,40.97
2017-04-11T10:43:55.530Z,41.93
2017-04-11T10:45:05.550Z,42.11
2017-04-11T10:46:15.182Z,42.67
2017-04-11T10:47:25.426Z,42.67
2017-04-11T10:48:36.623Z,42.86
2017-04-11T10:49:46.830Z,42.96
2017-04-11T10:50:57.464Z,43.62
2017-04-11T10:52:07.952Z,43.05
2017-04-11T10:53:17.855Z,42.67
2017-04-11T10:54:27.796Z,42.48
2017-04-11T10:55:37.705Z,42.77
2017-04-11T10:56:47.630Z,43.72
2017-04-11T10:57:57.536Z,43.53
2017-04-11T10:59:07.101Z,43.79
2017-04-11T11:00:17.034Z,44.37
2017-04-11T11:01:26.985Z,44.94
2017-04-11T11:02:36.576Z,45.89
2017-04-11T11:03:45.892Z,45.61
2017-04-11T11:04:55.744Z,46.18
2017-04-11T11:06:05.478Z,47.03
2017-04-11T11:07:15.072Z,46.73
2017-04-11T11:08:24.705Z,46.63
2017-04-11T11:09:34.617Z,47.11
2017-04-11T11:10:44.912Z,46.92
2017-04-11T11:11:54.910Z,47.49
2017-04-11T11:13:04.821Z,47.39
2017-04-11T11:14:14.447Z,47.49
2017-04-11T11:15:24.053Z,47.49
2017-04-11T11:16:33.590Z,47.39
2017-04-11T11:17:43.494Z,47.11
2017-04-11T11:18:53.601Z,46.63
2017-04-11T11:20:03.218Z,46.73
2017-04-11T11:21:12.870Z,47.03
2017-04-11T11:22:23.159Z,46.92
2017-04-11T11:23:33.093Z,47.32
2017-04-11T11:24:42.694Z,46.75
2017-04-11T11:25:52.659Z,46.37
2017-04-11T11:27:02.603Z,45.99
2017-04-11T11:28:12.765Z,45.89
2017-04-11T11:29:22.766Z,45.61
2017-04-11T11:30:32.682Z,45.7
2017-04-11T11:31:42.605Z,45.7
2017-04-11T11:32:52.534Z,45.51
2017-04-11T11:34:02.753Z,45.13
2017-04-11T11:35:12.663Z,44.84
2017-04-11T11:36:22.255Z,44.84
2017-04-11T11:37:32.185Z,45.03
2017-04-11T11:38:42.218Z,44.84
2017-04-11T11:39:52.524Z,44.84
2017-04-11T11:41:01.837Z,44.74
2017-04-11T11:42:11.472Z,44.94
2017-04-11T11:43:21.107Z,45.22
2017-04-11T11:44:30.376Z,44.84
2017-04-11T11:45:40.622Z,45.39
2017-04-11T11:46:49.998Z,45.68
2017-04-11T11:47:59.597Z,45.68
2017-04-11T11:49:09.221Z,45.78
2017-04-11T11:50:18.808Z,46.25
2017-04-11T11:51:29.066Z,46.15
2017-04-11T11:52:38.698Z,46.25
2017-04-11T11:53:48.320Z,46.54
2017-04-11T11:54:58.272Z,46.25
2017-04-11T11:56:08.210Z,46.27
2017-04-11T11:57:18.150Z,45.79
2017-04-11T11:58:27.736Z,45.61
2017-04-11T11:59:37.026Z,45.42
2017-04-11T12:00:46.946Z,45.22
2017-04-11T12:01:56.287Z,44.94
2017-04-11T12:03:06.514Z,44.94
2017-04-11T12:04:16.198Z,44.94
2017-04-11T12:05:25.835Z,44.77
2017-04-11T12:06:35.448Z,44.2
2017-04-11T12:07:45.179Z,44.01
2017-04-11T12:08:55.385Z,44.01
2017-04-11T12:10:05.346Z,44.1
2017-04-11T12:11:15.264Z,43.05
2017-04-11T12:12:25.176Z,42.6
2017-04-11T12:13:34.479Z,42.79
2017-04-11T12:14:44.722Z,42.5
2017-04-11T12:15:54.645Z,42.69
2017-04-11T12:17:04.248Z,42.31
2017-04-11T12:18:13.965Z,42.88
2017-04-11T12:19:23.261Z,42.5
2017-04-11T12:20:33.494Z,42.4
2017-04-11T12:21:43.103Z,42.6
2017-04-11T12:22:53.366Z,42.5
2017-04-11T12:24:03.944Z,42.69
2017-04-11T12:25:14.522Z,42.02
2017-04-11T12:26:25.037Z,40.61
2017-04-11T12:27:35.541Z,40.25
2017-04-11T12:28:45.786Z,40.15
2017-04-11T12:29:55.964Z,39.58
2017-04-11T12:31:06.404Z,38.43
2017-04-11T12:32:16.911Z,38.26
2017-04-11T12:33:27.496Z,37.38
2017-04-11T12:34:37.754Z,36.8
2017-04-11T12:35:49.242Z,37.19
2017-04-11T12:36:59.734Z,37.85
2017-04-11T12:38:10.293Z,37.85
2017-04-11T12:39:20.586Z,38.98
2017-04-11T12:40:30.490Z,39.08
2017-04-11T12:41:40.148Z,39.44
2017-04-11T12:42:50.091Z,40.2
2017-04-11T12:44:00.017Z,40.3
2017-04-11T12:45:09.602Z,40.4
2017-04-11T12:46:18.887Z,40.76
2017-04-11T12:47:28.797Z,41.05
2017-04-11T12:48:38.726Z,41.24
2017-04-11T12:49:48.664Z,41.43
2017-04-11T12:50:58.305Z,41.52
2017-04-11T12:52:08.257Z,41.79
2017-04-11T12:53:18.172Z,41.88
2017-04-11T12:54:28.210Z,42.36
2017-04-11T12:55:38.448Z,42.17
2017-04-11T12:56:48.392Z,41.98
2017-04-11T12:57:58.337Z,41.98
2017-04-11T12:59:08.330Z,41.98
2017-04-11T13:00:17.922Z,42.1
2017-04-11T13:01:28.199Z,41.91
2017-04-11T13:02:38.128Z,41.81
2017-04-11T13:03:48.092Z,41.91
2017-04-11T13:04:57.754Z,41.81
2017-04-11T13:06:07.697Z,41.62
2017-04-11T13:07:17.933Z,40.95
2017-04-11T13:08:28.089Z,41.05
2017-04-11T13:09:37.995Z,41.05
2017-04-11T13:10:47.662Z,41.05
2017-04-11T13:11:57.575Z,40.47
2017-04-11T13:13:07.780Z,40.86
2017-04-11T13:14:17.492Z,40.47
2017-04-11T13:15:27.411Z,40.47
2017-04-11T13:16:37.035Z,40.76
2017-04-11T13:17:46.946Z,40.66
2017-04-11T13:18:57.311Z,40.66
2017-04-11T13:20:07.401Z,40.47
2017-04-11T13:21:16.985Z,40.47
2017-04-11T13:22:26.575Z,40.2
2017-04-11T13:23:36.182Z,39.64
2017-04-11T13:24:46.089Z,38.96
2017-04-11T13:25:56.023Z,38.49
2017-04-11T13:27:05.635Z,38.87
2017-04-11T13:28:15.263Z,39.06
2017-04-11T13:29:24.867Z,38.87
2017-04-11T13:30:34.755Z,38.1
2017-04-11T13:31:44.346Z,38.39
2017-04-11T13:32:54.305Z,38.87
2017-04-11T13:34:03.913Z,38.96
2017-04-11T13:35:13.521Z,38.49
2017-04-11T13:36:23.795Z,38.49
2017-04-11T13:37:33.463Z,38.96
2017-04-11T13:38:43.062Z,39.06
2017-04-11T13:39:52.807Z,39.06
2017-04-11T13:41:02.714Z,39.35
2017-04-11T13:42:12.638Z,39.25
2017-04-11T13:43:22.563Z,39.54
2017-04-11T13:44:32.170Z,39.25
2017-04-11T13:45:42.071Z,39.25
2017-04-11T13:46:51.692Z,39.42
2017-04-11T13:48:01.969Z,39.54
2017-04-11T13:49:11.900Z,39.61
2017-04-11T13:50:21.816Z,39.42
2017-04-11T13:51:31.098Z,40.09
2017-04-11T13:52:41.030Z,40.47
2017-04-11T13:53:50.885Z,40.47
2017-04-11T13:55:00.789Z,40.76
2017-04-11T13:56:10.416Z,41.05
2017-04-11T13:57:20.365Z,40.86
2017-04-11T13:58:29.954Z,40.95
2017-04-11T13:59:39.958Z,40.95
2017-04-11T14:00:49.868Z,41.05
2017-04-11T14:01:59.850Z,41.43
2017-04-11T14:03:09.744Z,41.43
2017-04-11T14:04:19.652Z,41.43
2017-04-11T14:05:29.981Z,41.81
2017-04-11T14:06:39.702Z,41.69
2017-04-11T14:07:49.322Z,41.88
2017-04-11T14:08:58.922Z,42.27
2017-04-11T14:10:08.516Z,42.08
2017-04-11T14:11:18.769Z,42.1
2017-04-11T14:12:28.431Z,42.84
2017-04-11T14:13:38.133Z,42.67
2017-04-11T14:14:47.765Z,42.48
2017-04-11T14:15:57.395Z,42.38
2017-04-11T14:17:07.600Z,42.38
2017-04-11T14:18:17.538Z,42
2017-04-11T14:19:27.135Z,42.38
2017-04-11T14:20:37.088Z,42.19
2017-04-11T14:21:47.080Z,42.29
2017-04-11T14:22:57.316Z,41.81
2017-04-11T14:24:06.916Z,42.67
2017-04-11T14:25:16.200Z,42.48
2017-04-11T14:26:26.223Z,42.57
2017-04-11T14:27:36.196Z,42.48
2017-04-11T14:28:46.499Z,42.86
2017-04-11T14:29:56.215Z,42.77
2017-04-11T14:31:05.814Z,42.86
2017-04-11T14:32:15.720Z,42.77
2017-04-11T14:33:25.843Z,42.29
2017-04-11T14:34:36.137Z,42.67
2017-04-11T14:35:46.047Z,42.74
2017-04-11T14:36:55.634Z,43.51
2017-04-11T14:38:05.544Z,43.51
2017-04-11T14:39:15.487Z,43.6
2017-04-11T14:40:25.339Z,44.08
2017-04-11T14:41:34.958Z,43.98
2017-04-11T14:42:44.863Z,43.89
2017-04-11T14:43:54.471Z,44.17
2017-04-11T14:45:04.064Z,44.08
2017-04-11T14:46:13.642Z,44.08
2017-04-11T14:47:22.966Z,44.37
2017-04-11T14:48:32.886Z,44.27
2017-04-11T14:49:42.486Z,44.56
2017-04-11T14:50:52.549Z,44.37
2017-04-11T14:52:02.450Z,44.94
2017-04-11T14:53:12.376Z,45.13
2017-04-11T14:54:22.341Z,45.03
2017-04-11T14:55:31.930Z,45.13
2017-04-11T14:56:41.883Z,44.94
2017-04-11T14:57:52.184Z,44.65
2017-04-11T14:59:01.941Z,45.03
2017-04-11T15:00:11.241Z,45.03
2017-04-11T15:01:21.146Z,45.13
2017-04-11T15:02:30.741Z,44.94
2017-04-11T15:03:40.971Z,45.22